Time;durP1;ratioP1;P1;durP2;ratioP2;P2;SDS_P1;SDS_P2;PMS_P1;PMS_P2;Temp;Humidity;BMP_temperature;BMP_pressure;BME280_temperature;BME280_humidity;BME280_pressure;Samples;Min_cycle;Max_cycle;Signal;HPM_P1;HPM_P2
2021/05/01 00:02:19;;;;;;;30.00;21.25;;;;;;;8.37;63.46;100049.75;5072889;28;20060;-74
2021/05/01 00:04:46;;;;;;;29.73;19.60;;;;;;;8.40;63.79;100040.81;5073718;28;20071;-75
2021/05/01 00:07:13;;;;;;;30.27;20.23;;;;;;;8.48;63.77;100037.34;5074169;28;20056;-75
2021/05/01 00:09:40;;;;;;;30.17;20.90;;;;;;;8.47;63.99;100038.47;5073422;28;20059;-75
2021/05/01 00:12:09;;;;;;;31.83;21.05;;;;;;;8.50;64.60;100034.22;5073524;28;20052;-75
2021/05/01 00:14:37;;;;;;;29.52;20.90;;;;;;;8.52;64.90;100035.59;5073452;28;20052;-75
2021/05/01 00:17:04;;;;;;;29.33;20.50;;;;;;;8.54;64.30;100027.75;5073102;28;20401;-75
2021/05/01 00:19:31;;;;;;;32.10;21.92;;;;;;;8.58;64.04;100029.91;5073778;28;20060;-75
2021/05/01 00:21:57;;;;;;;33.17;22.83;;;;;;;8.59;64.43;100020.44;5073453;28;20048;-75
2021/05/01 00:24:24;;;;;;;35.28;23.58;;;;;;;8.62;64.04;100033.72;5073013;28;20048;-75
2021/05/01 00:26:51;;;;;;;34.63;23.23;;;;;;;8.59;64.62;100034.31;5073623;28;20497;-75
2021/05/01 00:29:18;;;;;;;33.30;23.05;;;;;;;8.55;64.93;100039.69;5074240;28;20059;-75
2021/05/01 00:31:46;;;;;;;33.03;21.80;;;;;;;8.58;64.62;100035.47;5079543;28;20056;-75
2021/05/01 00:34:13;;;;;;;38.83;24.40;;;;;;;8.65;64.64;100033.06;5079468;28;20398;-75
2021/05/01 00:36:40;;;;;;;32.45;22.40;;;;;;;8.63;64.51;100030.63;5079630;28;20063;-75
2021/05/01 00:39:07;;;;;;;34.30;23.08;;;;;;;8.67;64.80;100031.66;5079863;28;20060;-75
2021/05/01 00:41:34;;;;;;;35.35;22.63;;;;;;;8.69;65.20;100034.09;5079411;28;20049;-75
2021/05/01 00:44:04;;;;;;;31.25;22.25;;;;;;;8.71;65.01;100027.13;5079455;28;20052;-75
2021/05/01 00:46:31;;;;;;;34.20;22.67;;;;;;;8.76;65.06;100028.94;5079311;28;20064;-75
2021/05/01 00:48:59;;;;;;;33.05;21.52;;;;;;;8.79;64.74;100021.94;5080402;28;20369;-75
2021/05/01 00:51:26;;;;;;;30.88;21.60;;;;;;;8.80;64.66;100024.41;5079580;28;20049;-75
2021/05/01 00:53:53;;;;;;;32.20;21.50;;;;;;;8.80;65.17;100016.06;5080811;28;20481;-75
2021/05/01 00:56:21;;;;;;;31.65;22.65;;;;;;;8.84;65.33;100019.88;5079121;28;20497;-74
2021/05/01 00:58:51;;;;;;;33.75;22.65;;;;;;;8.82;65.80;100022.13;5079139;28;20052;-75
2021/05/01 01:01:18;;;;;;;34.85;24.35;;;;;;;8.82;65.97;100019.38;5080561;28;20048;-75
2021/05/01 01:03:47;;;;;;;35.67;22.60;;;;;;;8.81;66.18;100014.94;5079623;28;20056;-75
2021/05/01 01:06:15;;;;;;;35.00;24.02;;;;;;;8.83;65.61;100015.44;5079830;28;20048;-75
2021/05/01 01:08:43;;;;;;;37.70;25.52;;;;;;;8.80;66.11;100016.06;5079113;28;20048;-75
2021/05/01 01:11:13;;;;;;;40.95;25.52;;;;;;;8.84;66.84;100014.31;5079421;28;20044;-75
2021/05/01 01:13:40;;;;;;;36.15;23.55;;;;;;;8.89;66.75;100021.69;5079249;28;20056;-75
2021/05/01 01:16:07;;;;;;;36.58;24.65;;;;;;;8.92;66.88;100021.06;5078892;28;20067;-75
2021/05/01 01:18:34;;;;;;;33.10;22.80;;;;;;;8.96;66.91;100015.69;5078924;28;20056;-75
2021/05/01 01:21:03;;;;;;;34.15;22.35;;;;;;;8.97;65.91;100009.84;5079238;28;20055;-75
2021/05/01 01:23:31;;;;;;;33.75;23.30;;;;;;;8.98;65.31;100013.44;5078826;28;20059;-75
2021/05/01 01:25:59;;;;;;;33.78;22.88;;;;;;;8.93;65.76;100006.06;5078998;28;20079;-75
2021/05/01 01:28:26;;;;;;;35.88;23.02;;;;;;;8.91;66.08;100009.13;5079118;28;20057;-75
2021/05/01 01:30:53;;;;;;;39.20;24.25;;;;;;;8.93;66.78;100008.81;5078802;28;20079;-75
2021/05/01 01:33:20;;;;;;;37.60;25.15;;;;;;;8.91;67.40;100009.13;5079558;28;20059;-75
2021/05/01 01:35:47;;;;;;;36.55;23.67;;;;;;;8.97;67.07;100011.81;5079255;28;20481;-75
2021/05/01 01:38:14;;;;;;;36.33;24.02;;;;;;;8.99;67.26;100015.06;5079671;28;20052;-75
2021/05/01 01:40:42;;;;;;;37.38;24.30;;;;;;;8.95;67.55;100006.56;5077977;28;20056;-75
2021/05/01 01:43:10;;;;;;;34.92;23.95;;;;;;;8.98;67.94;100007.88;5075976;28;20057;-74
2021/05/01 01:45:36;;;;;;;41.30;25.75;;;;;;;9.00;67.97;100003.63;5076085;28;20052;-74
2021/05/01 01:48:04;;;;;;;39.13;25.75;;;;;;;9.03;67.31;100007.72;5075156;28;20520;-75
2021/05/01 01:50:31;;;;;;;39.08;25.50;;;;;;;9.02;68.07;100014.44;5076264;28;20056;-74
2021/05/01 01:52:59;;;;;;;41.15;26.73;;;;;;;9.05;67.69;100008.25;5070779;28;20416;-75
2021/05/01 01:55:26;;;;;;;37.97;25.95;;;;;;;9.10;67.22;100008.13;5073349;28;20057;-75
2021/05/01 01:57:54;;;;;;;36.85;24.85;;;;;;;9.10;67.10;100000.63;5075240;28;20123;-75
2021/05/01 02:00:25;;;;;;;39.92;26.42;;;;;;;9.09;67.39;100000.91;5075985;28;20052;-75
2021/05/01 02:02:54;;;;;;;38.75;25.40;;;;;;;9.06;68.36;100007.94;5075715;28;20060;-75
2021/05/01 02:05:21;;;;;;;40.10;26.45;;;;;;;9.07;68.09;100005.97;5075065;28;20378;-75
2021/05/01 02:07:49;;;;;;;36.72;24.45;;;;;;;9.10;67.89;100022.03;5075431;28;20049;-75
2021/05/01 02:10:17;;;;;;;35.85;23.35;;;;;;;9.08;68.44;100013.19;5075544;28;20057;-75
2021/05/01 02:12:47;;;;;;;36.00;23.70;;;;;;;9.06;67.83;100010.72;5075023;28;20052;-75
2021/05/01 02:15:16;;;;;;;37.05;24.52;;;;;;;9.07;68.06;100015.16;5075195;28;20064;-75
2021/05/01 02:17:47;;;;;;;33.45;23.33;;;;;;;9.10;68.18;100010.91;5074944;28;20052;-75
2021/05/01 02:20:15;;;;;;;36.97;24.02;;;;;;;9.13;67.79;100010.28;5074658;28;20500;-75
2021/05/01 02:22:42;;;;;;;40.80;25.83;;;;;;;9.13;67.71;100027.78;5074720;28;20052;-75
2021/05/01 02:25:11;;;;;;;37.15;25.98;;;;;;;9.16;67.73;100023.53;5074822;28;20059;-75
2021/05/01 02:27:38;;;;;;;41.67;25.17;;;;;;;9.12;68.40;100020.56;5075097;28;20055;-75
2021/05/01 02:30:07;;;;;;;41.40;26.55;;;;;;;9.07;68.43;100028.19;5074741;28;20056;-75
2021/05/01 02:32:35;;;;;;;37.88;27.05;;;;;;;9.15;68.49;100027.44;5074839;28;20063;-75
2021/05/01 02:35:02;;;;;;;42.67;26.08;;;;;;;9.09;67.83;100023.16;5075675;28;20067;-75
2021/05/01 02:37:29;;;;;;;40.42;26.10;;;;;;;9.09;67.37;100020.38;5074742;28;20063;-75
2021/05/01 02:39:55;;;;;;;36.28;24.77;;;;;;;9.13;67.70;100013.03;5074310;28;20060;-75
2021/05/01 02:42:22;;;;;;;40.55;26.73;;;;;;;9.12;68.77;100019.75;5074826;28;20067;-75
2021/05/01 02:44:49;;;;;;;42.63;25.48;;;;;;;9.18;67.69;100020.47;5074813;28;20055;-75
2021/05/01 02:47:17;;;;;;;41.08;25.40;;;;;;;9.19;67.64;100022.91;5075023;28;20053;-75
2021/05/01 02:49:45;;;;;;;38.22;26.55;;;;;;;9.20;67.29;100019.00;5074602;28;20047;-75
2021/05/01 02:52:12;;;;;;;39.53;28.15;;;;;;;9.18;67.25;100021.28;5074132;28;20048;-75
2021/05/01 02:54:39;;;;;;;39.83;27.08;;;;;;;9.23;67.41;100010.00;5073860;28;20048;-75
2021/05/01 02:57:06;;;;;;;47.70;31.98;;;;;;;9.23;67.20;100017.53;5074042;28;20055;-75
2021/05/01 02:59:33;;;;;;;46.60;29.17;;;;;;;9.21;67.66;100003.13;5073894;28;20057;-75
2021/05/01 03:01:59;;;;;;;44.08;29.83;;;;;;;9.20;68.04;100005.09;5074294;28;20049;-75
2021/05/01 03:04:26;;;;;;;45.47;31.63;;;;;;;9.24;67.99;100000.56;5073906;28;20424;-75
2021/05/01 03:06:54;;;;;;;48.85;32.55;;;;;;;9.24;68.22;100005.28;5074059;28;20056;-75
2021/05/01 03:09:21;;;;;;;48.00;33.72;;;;;;;9.27;67.83;100004.66;5074306;28;20389;-75
2021/05/01 03:11:48;;;;;;;50.05;34.15;;;;;;;9.29;67.77;99997.63;5074343;28;20399;-75
2021/05/01 03:14:15;;;;;;;54.65;35.80;;;;;;;9.30;67.75;100002.06;5073999;28;20053;-75
2021/05/01 03:16:42;;;;;;;53.08;36.72;;;;;;;9.31;68.28;100000.91;5074821;28;20055;-75
2021/05/01 03:19:09;;;;;;;56.67;37.30;;;;;;;9.31;68.21;100003.69;5073554;28;20048;-75
2021/05/01 03:21:36;;;;;;;51.75;35.90;;;;;;;9.35;68.02;99999.13;5073772;28;20052;-75
2021/05/01 03:24:04;;;;;;;57.00;38.22;;;;;;;9.37;68.27;99993.28;5073525;28;20049;-75
2021/05/01 03:26:31;;;;;;;55.30;38.20;;;;;;;9.41;68.71;99999.00;5074435;28;20059;-75
2021/05/01 03:29:01;;;;;;;57.38;39.05;;;;;;;9.43;68.91;99997.56;5074240;28;20055;-75
2021/05/01 03:31:28;;;;;;;54.85;38.17;;;;;;;9.46;68.86;100005.25;5074484;28;20489;-74
2021/05/01 03:33:54;;;;;;;59.65;39.35;;;;;;;9.50;69.14;99997.09;5074027;28;20064;-75
2021/05/01 03:36:21;;;;;;;54.65;38.15;;;;;;;9.54;68.67;99993.34;5073945;28;20052;-75
2021/05/01 03:38:48;;;;;;;53.70;37.72;;;;;;;9.61;68.73;99995.66;5073388;28;20044;-74
2021/05/01 03:41:16;;;;;;;55.42;38.92;;;;;;;9.67;68.68;99999.97;5074433;28;20052;-74
2021/05/01 03:43:43;;;;;;;54.35;38.05;;;;;;;9.72;68.17;99999.84;5074602;28;20055;-75
2021/05/01 03:46:09;;;;;;;54.80;38.08;;;;;;;9.76;67.92;99997.22;5074403;28;20048;-75
2021/05/01 03:48:36;;;;;;;59.78;39.70;;;;;;;9.73;68.21;99990.34;5074738;28;20048;-75
2021/05/01 03:51:04;;;;;;;60.92;39.97;;;;;;;9.71;67.92;99995.41;5074412;28;20056;-75
2021/05/01 03:53:31;;;;;;;65.15;41.40;;;;;;;9.67;68.11;99986.06;5074399;28;20045;-75
2021/05/01 03:55:58;;;;;;;64.10;42.00;;;;;;;9.64;68.09;99989.50;5074285;28;20044;-75
2021/05/01 03:58:26;;;;;;;67.70;41.60;;;;;;;9.58;67.92;99990.75;5074482;28;20087;-75
2021/05/01 04:00:55;;;;;;;70.47;43.00;;;;;;;9.50;67.97;99994.31;5075150;28;20052;-75
2021/05/01 04:03:22;;;;;;;73.22;44.15;;;;;;;9.43;68.57;99996.72;5075010;28;20490;-75
2021/05/01 04:05:49;;;;;;;68.22;44.53;;;;;;;9.35;68.77;100006.66;5075587;28;20150;-74
2021/05/01 04:08:16;;;;;;;70.80;44.00;;;;;;;9.35;69.53;99998.31;5075618;28;20071;-74
2021/05/01 04:10:46;;;;;;;66.20;41.85;;;;;;;9.33;69.29;100000.59;5074758;28;20053;-75
2021/05/01 04:13:12;;;;;;;62.53;42.08;;;;;;;9.38;69.70;100006.00;5075643;28;20049;-74
2021/05/01 04:15:40;;;;;;;67.10;43.47;;;;;;;9.45;68.80;100011.13;5075225;28;20059;-76
2021/05/01 04:18:12;;;;;;;66.63;42.90;;;;;;;9.49;68.96;100004.63;5075447;28;20485;-74
2021/05/01 04:20:39;;;;;;;63.42;41.13;;;;;;;9.57;68.84;100005.78;5075903;28;20056;-74
2021/05/01 04:23:06;;;;;;;71.13;43.25;;;;;;;9.57;68.53;100007.75;5075730;28;20047;-74
2021/05/01 04:25:33;;;;;;;69.88;44.20;;;;;;;9.64;68.48;100019.22;5074937;28;20496;-75
2021/05/01 04:27:59;;;;;;;69.65;44.67;;;;;;;9.71;67.83;100014.88;5074959;28;20052;-75
2021/05/01 04:30:26;;;;;;;67.30;43.10;;;;;;;9.71;67.40;100012.09;5074904;28;20398;-75
2021/05/01 04:32:54;;;;;;;78.18;46.97;;;;;;;9.71;67.88;100006.53;5073690;28;20489;-75
2021/05/01 04:35:22;;;;;;;66.80;42.97;;;;;;;9.78;67.18;100016.38;5073102;28;20048;-75
2021/05/01 04:37:48;;;;;;;72.20;43.83;;;;;;;9.80;67.14;100017.69;5073168;28;20140;-74
2021/05/01 04:40:16;;;;;;;69.28;44.13;;;;;;;9.84;66.73;100017.88;5072711;28;20044;-75
2021/05/01 04:42:47;;;;;;;67.70;42.17;;;;;;;9.84;66.94;100026.22;5073316;28;20048;-75
2021/05/01 04:45:15;;;;;;;75.85;47.28;;;;;;;9.86;66.93;100030.31;5073366;28;20048;-75
2021/05/01 04:47:43;;;;;;;72.10;44.05;;;;;;;9.85;67.56;100036.19;5072913;28;20049;-76
2021/05/01 04:50:12;;;;;;;76.43;47.08;;;;;;;9.86;67.35;100038.66;5073119;28;20052;-76
2021/05/01 04:52:39;;;;;;;74.95;46.88;;;;;;;9.89;66.99;100037.19;5072818;28;20056;-76
2021/05/01 04:55:13;;;;;;;69.40;43.38;;;;;;;9.90;66.84;100041.63;5072292;28;20059;-75
2021/05/01 04:57:44;;;;;;;68.32;44.13;;;;;;;9.91;66.76;100052.44;5052519;28;20056;-76
2021/05/01 05:00:13;;;;;;;73.70;45.40;;;;;;;9.93;66.49;100052.94;5055892;28;20060;-75
2021/05/01 05:02:41;;;;;;;70.18;44.05;;;;;;;9.90;66.84;100045.22;5062771;28;20421;-75
2021/05/01 05:05:09;;;;;;;72.43;46.60;;;;;;;9.91;67.01;100052.44;5066338;28;20044;-75
2021/05/01 05:07:37;;;;;;;71.28;45.08;;;;;;;9.98;66.28;100051.16;5052492;28;20045;-75
2021/05/01 05:10:06;;;;;;;72.03;43.58;;;;;;;10.01;66.65;100050.50;5060380;28;20052;-75
2021/05/01 05:12:33;;;;;;;69.00;44.63;;;;;;;10.07;66.47;100047.25;5072055;28;20052;-75
2021/05/01 05:14:59;;;;;;;67.80;44.70;;;;;;;10.16;65.98;100050.06;5072452;28;20057;-75
2021/05/01 05:17:26;;;;;;;65.95;43.00;;;;;;;10.21;65.66;100052.72;5074159;28;20076;-75
2021/05/01 05:19:53;;;;;;;67.25;40.47;;;;;;;10.27;65.18;100054.22;5075744;28;20047;-75
2021/05/01 05:22:20;;;;;;;66.03;42.30;;;;;;;10.29;65.51;100046.38;5075701;28;20053;-75
2021/05/01 05:24:48;;;;;;;66.03;43.38;;;;;;;10.35;64.93;100055.41;5075022;28;20458;-75
2021/05/01 05:27:15;;;;;;;65.80;42.47;;;;;;;10.38;64.72;100054.75;5075416;28;20052;-75
2021/05/01 05:29:48;;;;;;;67.93;42.55;;;;;;;10.31;64.22;100048.81;5076094;28;20480;-75
2021/05/01 05:32:15;;;;;;;65.43;41.72;;;;;;;10.33;63.84;100060.47;5075802;28;20224;-75
2021/05/01 05:34:42;;;;;;;67.72;41.22;;;;;;;10.33;63.78;100063.25;5075679;28;20454;-75
2021/05/01 05:37:09;;;;;;;66.28;38.72;;;;;;;10.34;63.34;100062.13;5075910;28;20052;-75
2021/05/01 05:39:36;;;;;;;62.17;40.20;;;;;;;10.29;63.00;100073.34;5075483;28;20079;-75
2021/05/01 05:42:06;;;;;;;62.95;40.88;;;;;;;10.31;63.62;100076.66;5072309;28;20417;-75
2021/05/01 05:44:33;;;;;;;58.90;37.35;;;;;;;10.34;61.90;100071.28;5075725;28;20049;-75
2021/05/01 05:47:00;;;;;;;59.05;37.42;;;;;;;10.31;62.46;100071.94;5075557;28;20052;-75
2021/05/01 05:49:27;;;;;;;65.38;37.45;;;;;;;10.33;61.77;100077.16;5075467;28;20052;-75
2021/05/01 05:51:54;;;;;;;59.42;37.35;;;;;;;10.41;61.06;100076.38;5075375;28;20074;-76
2021/05/01 05:54:21;;;;;;;54.10;35.15;;;;;;;10.43;61.15;100078.84;5075342;28;20064;-75
2021/05/01 05:56:48;;;;;;;54.45;35.25;;;;;;;10.46;60.46;100079.03;5074603;28;20055;-75
2021/05/01 05:59:15;;;;;;;54.83;35.15;;;;;;;10.53;59.98;100076.56;5075084;28;20048;-75
2021/05/01 06:01:46;;;;;;;55.60;35.80;;;;;;;10.59;59.85;100073.66;5075152;28;20060;-75
2021/05/01 06:04:16;;;;;;;53.95;35.25;;;;;;;10.65;59.32;100075.16;5074293;28;20052;-75
2021/05/01 06:06:52;;;;;;;55.03;36.70;;;;;;;10.70;59.63;100077.75;5075189;28;20063;-75
2021/05/01 06:09:20;;;;;;;50.70;35.28;;;;;;;10.88;59.62;100068.28;5075191;28;20061;-75
2021/05/01 06:11:49;;;;;;;56.10;35.92;;;;;;;11.03;59.46;100069.78;5075224;28;20413;-75
2021/05/01 06:14:19;;;;;;;50.58;33.95;;;;;;;11.24;58.61;100075.50;5074782;28;20387;-75
2021/05/01 06:16:47;;;;;;;47.78;33.65;;;;;;;11.39;57.38;100076.97;5075111;28;20063;-75
2021/05/01 06:19:14;;;;;;;51.75;34.72;;;;;;;11.45;57.21;100069.25;5073942;28;20060;-75
2021/05/01 06:21:41;;;;;;;49.08;33.60;;;;;;;11.63;55.75;100072.81;5074830;28;20052;-76
2021/05/01 06:24:09;;;;;;;44.72;31.08;;;;;;;11.76;55.59;100069.84;5074318;28;20048;-76
2021/05/01 06:26:39;;;;;;;42.65;30.52;;;;;;;11.94;54.41;100070.63;5074846;28;20486;-76
2021/05/01 06:29:09;;;;;;;44.80;29.52;;;;;;;12.08;53.79;100066.84;5074410;28;20052;-75
2021/05/01 06:31:37;;;;;;;42.53;28.15;;;;;;;12.13;53.61;100072.22;5074946;28;20048;-75
2021/05/01 06:34:06;;;;;;;40.30;28.00;;;;;;;12.20;51.73;100069.75;5074115;28;20048;-75
2021/05/01 06:36:33;;;;;;;35.53;26.38;;;;;;;12.33;50.80;100063.09;5074303;28;20084;-75
2021/05/01 06:39:03;;;;;;;39.50;27.33;;;;;;;12.62;50.10;100064.25;5074685;28;20059;-75
2021/05/01 06:41:39;;;;;;;40.28;26.25;;;;;;;12.71;49.13;100058.59;5074163;28;20060;-75
2021/05/01 06:44:13;;;;;;;37.58;26.48;;;;;;;12.82;49.26;100059.84;5071913;28;20413;-75
2021/05/01 06:46:45;;;;;;;39.20;27.27;;;;;;;13.02;49.51;100051.78;5073785;28;20060;-75
2021/05/01 06:49:13;;;;;;;37.83;27.30;;;;;;;13.12;48.96;100049.41;5073516;28;20059;-75
2021/05/01 06:51:41;;;;;;;36.03;26.70;;;;;;;13.09;48.81;100049.28;5073833;28;20059;-75
2021/05/01 06:54:10;;;;;;;39.65;27.60;;;;;;;13.08;49.29;100047.63;5073075;28;20056;-75
2021/05/01 06:56:41;;;;;;;41.58;29.73;;;;;;;13.12;49.43;100054.16;5073519;28;20056;-75
2021/05/01 06:59:09;;;;;;;36.88;26.05;;;;;;;13.25;48.94;100055.88;5073830;28;20052;-75
2021/05/01 07:01:39;;;;;;;37.78;27.38;;;;;;;13.53;48.56;100049.72;5074471;28;20078;-75
2021/05/01 07:04:08;;;;;;;32.53;25.83;;;;;;;13.55;47.69;100044.59;5074026;28;20052;-75
2021/05/01 07:06:37;;;;;;;27.38;22.98;;;;;;;13.56;46.34;100043.41;5074131;28;20409;-75
2021/05/01 07:09:05;;;;;;;32.15;24.80;;;;;;;13.53;46.32;100042.13;5073277;28;20044;-75
2021/05/01 07:11:32;;;;;;;35.63;24.45;;;;;;;13.78;46.72;100040.22;5072787;28;20515;-75
2021/05/01 07:13:59;;;;;;;32.67;25.63;;;;;;;14.15;45.28;100047.84;5073884;28;20075;-75
2021/05/01 07:16:28;;;;;;;31.23;22.65;;;;;;;14.62;42.52;100050.22;5073600;28;20052;-75
2021/05/01 07:18:56;;;;;;;27.20;21.52;;;;;;;15.20;41.11;100033.13;5072936;28;20052;-75
2021/05/01 07:21:24;;;;;;;30.33;22.20;;;;;;;15.52;40.59;100041.66;5073275;28;20059;-75
2021/05/01 07:23:52;;;;;;;27.38;21.55;;;;;;;15.71;40.33;100047.41;5074260;28;20044;-75
2021/05/01 07:26:21;;;;;;;25.58;21.75;;;;;;;15.43;40.55;100059.47;5073713;28;20053;-75
2021/05/01 07:28:51;;;;;;;26.65;22.23;;;;;;;15.67;40.34;100054.91;5073171;28;20048;-75
2021/05/01 07:31:22;;;;;;;25.77;22.35;;;;;;;16.72;38.80;100041.50;5071590;28;20052;-76
2021/05/01 07:33:53;;;;;;;27.35;22.02;;;;;;;17.82;35.98;100037.38;5069770;28;20041;-75
2021/05/01 07:36:24;;;;;;;27.35;21.85;;;;;;;18.66;34.35;100029.91;5074054;28;20183;-75
2021/05/01 07:38:52;;;;;;;22.63;20.17;;;;;;;19.59;32.55;100029.50;5072876;28;20052;-74
2021/05/01 07:41:24;;;;;;;26.43;20.77;;;;;;;20.17;30.99;100043.03;5073504;28;20060;-74
2021/05/01 07:43:52;;;;;;;21.23;19.02;;;;;;;20.77;30.53;100041.94;5072834;28;20481;-76
2021/05/01 07:46:23;;;;;;;21.92;19.63;;;;;;;21.61;29.66;100043.97;5071385;28;20071;-77
2021/05/01 07:48:50;;;;;;;21.05;18.85;;;;;;;22.70;27.13;100035.16;5072324;28;20063;-77
2021/05/01 07:51:18;;;;;;;20.67;18.52;;;;;;;23.61;25.02;100027.97;5072228;28;20052;-77
2021/05/01 07:53:45;;;;;;;23.38;20.08;;;;;;;24.07;25.78;100030.53;5072730;28;20060;-77
2021/05/01 07:56:12;;;;;;;21.30;19.20;;;;;;;24.08;24.47;100042.72;5072839;28;20056;-77
2021/05/01 07:58:39;;;;;;;21.38;19.27;;;;;;;23.43;25.85;100037.38;5072562;28;20065;-77
2021/05/01 08:01:06;;;;;;;23.27;20.77;;;;;;;23.06;26.02;100035.91;5073178;28;20045;-77
2021/05/01 08:03:33;;;;;;;29.02;22.02;;;;;;;23.43;26.60;100033.72;5072925;28;20056;-76
2021/05/01 08:06:00;;;;;;;28.30;22.98;;;;;;;22.46;27.36;100042.47;5072859;28;20063;-76
2021/05/01 08:08:27;;;;;;;21.27;18.85;;;;;;;21.49;27.81;100042.31;5073140;28;20063;-76
2021/05/01 08:10:54;;;;;;;22.45;17.15;;;;;;;20.60;27.99;100043.44;5072887;28;20409;-76
2021/05/01 08:13:22;;;;;;;18.27;16.15;;;;;;;20.44;28.27;100037.22;5072178;28;20056;-77
2021/05/01 08:15:48;;;;;;;17.73;15.82;;;;;;;21.58;26.09;100033.41;5072508;28;20489;-76
2021/05/01 08:18:15;;;;;;;17.52;15.23;;;;;;;22.66;24.58;100032.31;5073125;28;20048;-75
2021/05/01 08:20:42;;;;;;;17.50;15.10;;;;;;;23.65;23.12;100031.59;5062148;28;20049;-75
2021/05/01 08:23:09;;;;;;;17.48;14.48;;;;;;;24.63;22.19;100038.22;5072088;28;20059;-75
2021/05/01 08:25:36;;;;;;;16.92;14.45;;;;;;;25.23;20.42;100041.69;5062514;28;20064;-75
2021/05/01 08:28:04;;;;;;;17.55;15.02;;;;;;;25.28;20.47;100036.31;5073026;28;20072;-75
2021/05/01 08:30:31;;;;;;;17.75;15.32;;;;;;;24.99;20.79;100041.53;5073008;28;20100;-75
2021/05/01 08:32:58;;;;;;;16.73;13.73;;;;;;;25.16;20.86;100045.41;5072841;28;20477;-75
2021/05/01 08:35:25;;;;;;;17.50;15.13;;;;;;;24.24;22.14;100051.53;5073860;28;20048;-77
2021/05/01 08:37:52;;;;;;;15.30;13.52;;;;;;;23.44;21.51;100052.41;5071883;28;20055;-76
2021/05/01 08:40:19;;;;;;;16.35;13.30;;;;;;;22.51;23.09;100050.59;5072372;28;20064;-76
2021/05/01 08:42:47;;;;;;;13.27;11.50;;;;;;;22.67;21.23;100053.81;5073846;28;20056;-76
2021/05/01 08:45:16;;;;;;;15.00;12.82;;;;;;;23.15;20.96;100054.56;5073791;28;20056;-76
2021/05/01 08:47:45;;;;;;;15.15;12.38;;;;;;;23.90;20.18;100054.22;5073817;28;20040;-76
2021/05/01 08:50:39;;;;;;;16.92;14.23;;;;;;;23.08;20.88;100056.19;5074040;28;20464;-76
2021/05/01 08:53:07;;;;;;;17.58;14.25;;;;;;;21.94;23.49;100054.16;5077264;28;20064;-75
2021/05/01 08:55:39;;;;;;;15.40;13.75;;;;;;;22.30;22.61;100048.56;5077572;28;20052;-75
2021/05/01 08:58:11;;;;;;;16.65;14.15;;;;;;;23.83;20.62;100046.56;5076702;28;20052;-75
2021/05/01 09:00:41;;;;;;;16.20;14.57;;;;;;;25.28;19.97;100044.03;5077401;28;20071;-75
2021/05/01 09:03:13;;;;;;;18.05;15.45;;;;;;;26.74;18.93;100028.84;5077119;28;20063;-75
2021/05/01 09:05:41;;;;;;;14.95;13.45;;;;;;;28.29;16.79;100032.88;5075270;28;20057;-74
2021/05/01 09:08:11;;;;;;;16.75;15.05;;;;;;;29.47;16.42;100031.75;5076440;28;20064;-77
2021/05/01 09:10:41;;;;;;;16.25;14.55;;;;;;;30.70;15.18;100035.22;5073868;28;20048;-76
2021/05/01 09:13:18;;;;;;;16.50;14.80;;;;;;;31.94;14.33;100030.19;5076696;28;20045;-76
2021/05/01 09:16:03;;;;;;;15.32;13.73;;;;;;;31.41;14.30;100033.88;5075326;28;20052;-76
2021/05/01 09:18:46;;;;;;;16.52;14.90;;;;;;;29.82;15.36;100040.56;5056809;28;20075;-76
2021/05/01 09:21:17;;;;;;;16.30;14.50;;;;;;;30.10;14.42;100043.78;5076081;28;20044;-76
2021/05/01 09:23:45;;;;;;;15.15;13.55;;;;;;;30.25;13.76;100047.81;5076784;28;20048;-75
2021/05/01 09:26:13;;;;;;;16.02;14.43;;;;;;;28.74;15.71;100043.59;5077861;28;20056;-75
2021/05/01 09:28:44;;;;;;;15.00;13.27;;;;;;;27.52;16.47;100045.69;5076716;28;20119;-74
2021/05/01 09:31:14;;;;;;;13.85;11.98;;;;;;;28.49;15.01;100040.59;5076724;28;20044;-74
2021/05/01 09:33:42;;;;;;;12.85;11.38;;;;;;;30.10;13.83;100038.06;5076565;28;20052;-74
2021/05/01 09:36:13;;;;;;;13.43;10.65;;;;;;;31.71;11.99;100040.19;5076266;28;20057;-73
2021/05/01 09:38:44;;;;;;;10.73;9.73;;;;;;;32.49;10.91;100029.63;5074557;28;20053;-75
2021/05/01 09:41:34;;;;;;;13.07;11.77;;;;;;;33.37;10.13;100026.19;5074711;28;20049;-76
2021/05/01 09:44:04;;;;;;;11.65;10.45;;;;;;;34.41;9.18;100034.81;5075398;28;20063;-76
2021/05/01 09:46:42;;;;;;;11.52;10.43;;;;;;;34.95;9.20;100035.75;5067282;28;20057;-76
2021/05/01 09:49:13;;;;;;;11.70;10.50;;;;;;;34.21;10.73;100027.56;5075832;28;20413;-76
2021/05/01 09:51:50;;;;;;;14.50;13.10;;;;;;;33.35;11.48;100026.66;5075872;28;20044;-74
2021/05/01 09:54:19;;;;;;;14.30;12.80;;;;;;;32.53;12.03;100024.50;5074549;28;20052;-74
2021/05/01 09:56:47;;;;;;;13.93;12.45;;;;;;;33.39;11.06;100032.28;5075211;28;20052;-74
2021/05/01 09:59:17;;;;;;;13.43;12.15;;;;;;;34.15;10.54;100027.41;5074691;28;20055;-74
2021/05/01 10:01:55;;;;;;;12.52;11.25;;;;;;;33.45;11.16;100030.34;5075031;28;20049;-74
2021/05/01 10:04:24;;;;;;;13.93;10.77;;;;;;;33.28;10.18;100035.63;5075435;28;20055;-75
2021/05/01 10:06:56;;;;;;;11.35;9.70;;;;;;;33.66;9.92;100024.84;5075329;28;20053;-75
2021/05/01 10:09:27;;;;;;;9.60;8.68;;;;;;;33.27;9.89;100024.59;5074732;28;20056;-75
2021/05/01 10:12:03;;;;;;;10.35;8.80;;;;;;;33.97;8.85;100013.81;5074344;28;20053;-75
2021/05/01 10:14:41;;;;;;;10.73;9.70;;;;;;;34.08;8.82;100004.63;5074605;28;20466;-76
2021/05/01 10:17:11;;;;;;;10.65;9.45;;;;;;;35.28;8.35;100017.47;5064311;28;20151;-77
2021/05/01 10:19:48;;;;;;;12.10;9.85;;;;;;;34.44;9.72;100013.59;5074833;28;20057;-75
2021/05/01 10:22:25;;;;;;;12.32;11.00;;;;;;;34.26;9.86;100017.41;5074792;28;20059;-75
2021/05/01 10:24:53;;;;;;;11.98;10.68;;;;;;;33.26;10.74;100018.00;5070607;28;20493;-75
2021/05/01 10:27:20;;;;;;;12.05;10.95;;;;;;;32.76;11.82;100015.28;5069204;28;20048;-74
2021/05/01 10:30:08;;;;;;;12.38;11.18;;;;;;;32.69;11.49;100021.34;5073404;28;20064;-74
2021/05/01 10:32:43;;;;;;;13.02;11.82;;;;;;;31.70;11.46;100024.19;5074150;28;20052;-74
2021/05/01 10:35:12;;;;;;;13.90;12.25;;;;;;;32.29;11.58;100022.19;5074671;28;20048;-74
2021/05/01 10:37:45;;;;;;;;;;;;;;;33.12;10.99;100019.47;5075250;28;20052;-75
2021/05/01 10:40:12;;;;;;;12.52;11.30;;;;;;;34.48;9.57;100019.97;5076771;28;20014;-74
2021/05/01 10:42:39;;;;;;;10.48;9.35;;;;;;;35.63;8.38;100014.69;5074239;28;20067;-74
2021/05/01 10:45:10;;;;;;;13.10;11.10;;;;;;;34.20;9.75;100011.47;5072933;28;20052;-74
2021/05/01 10:47:37;;;;;;;10.20;9.30;;;;;;;34.02;9.46;100008.66;5073617;28;20045;-74
2021/05/01 10:50:21;;;;;;;9.95;9.13;;;;;;;35.52;9.23;100026.06;5074157;28;20045;-74
2021/05/01 10:52:49;;;;;;;10.60;9.60;;;;;;;34.32;9.27;100027.81;5074497;28;20060;-74
2021/05/01 10:55:17;;;;;;;10.88;9.82;;;;;;;33.62;9.41;100024.22;5074550;28;20048;-74
2021/05/01 10:57:57;;;;;;;10.18;9.27;;;;;;;35.53;8.95;100016.06;5073863;28;20060;-74
2021/05/01 11:00:25;;;;;;;8.65;7.85;;;;;;;35.34;7.68;100021.25;5074339;28;20052;-74
2021/05/01 11:03:00;;;;;;;9.40;8.13;;;;;;;36.17;7.44;100014.56;5073019;28;20051;-74
2021/05/01 11:05:31;;;;;;;8.82;7.95;;;;;;;36.19;7.07;100011.94;5073942;28;20048;-75
2021/05/01 11:08:19;;;;;;;7.70;6.90;;;;;;;36.44;7.13;100006.78;5073715;28;20484;-75
2021/05/01 11:10:47;;;;;;;7.30;5.85;;;;;;;36.26;7.27;99999.91;5073059;28;20670;-74
2021/05/01 11:13:25;;;;;;;8.38;7.57;;;;;;;35.69;7.72;100003.22;5074353;28;20052;-74
2021/05/01 11:15:57;;;;;;;10.57;7.63;;;;;;;36.11;9.12;100002.03;5073122;28;20052;-75
2021/05/01 11:18:26;;;;;;;11.15;10.07;;;;;;;36.00;8.44;99987.38;5073745;28;20060;-75
2021/05/01 11:21:00;;;;;;;10.30;9.40;;;;;;;36.07;8.46;99989.84;5074028;28;20048;-74
2021/05/01 11:23:30;;;;;;;10.30;9.32;;;;;;;35.54;8.58;99998.19;5072189;28;20064;-74